sensor_id;sensor_type;location;lat;lon;timestamp;P1;durP1;ratioP1;P2;durP2;ratioP2
11988;SDS011;6054;50.966;7.094;2023-02-15T00:01:06;26.52;;;17.20;;
11988;SDS011;6054;50.966;7.094;2023-02-15T00:03:33;24.10;;;16.17;;
11988;SDS011;6054;50.966;7.094;2023-02-15T00:06:00;24.23;;;16.02;;
11988;SDS011;6054;50.966;7.094;2023-02-15T00:08:27;24.27;;;16.97;;
11988;SDS011;6054;50.966;7.094;2023-02-15T00:11:02;23.52;;;16.60;;
11988;SDS011;6054;50.966;7.094;2023-02-15T00:13:30;23.83;;;16.52;;
11988;SDS011;6054;50.966;7.094;2023-02-15T00:15:59;27.37;;;16.23;;
11988;SDS011;6054;50.966;7.094;2023-02-15T00:18:28;25.05;;;17.38;;
11988;SDS011;6054;50.966;7.094;2023-02-15T00:20:55;23.17;;;15.90;;
11988;SDS011;6054;50.966;7.094;2023-02-15T00:23:22;25.30;;;16.33;;
11988;SDS011;6054;50.966;7.094;2023-02-15T00:25:49;25.93;;;16.57;;
11988;SDS011;6054;50.966;7.094;2023-02-15T00:28:16;24.73;;;16.77;;
11988;SDS011;6054;50.966;7.094;2023-02-15T00:30:42;23.30;;;16.13;;
11988;SDS011;6054;50.966;7.094;2023-02-15T00:33:09;23.50;;;15.50;;
11988;SDS011;6054;50.966;7.094;2023-02-15T00:35:37;23.03;;;16.00;;
11988;SDS011;6054;50.966;7.094;2023-02-15T00:38:04;23.47;;;16.40;;
11988;SDS011;6054;50.966;7.094;2023-02-15T00:40:31;23.23;;;16.73;;
11988;SDS011;6054;50.966;7.094;2023-02-15T00:42:57;22.80;;;15.53;;
11988;SDS011;6054;50.966;7.094;2023-02-15T00:45:24;24.20;;;16.48;;
11988;SDS011;6054;50.966;7.094;2023-02-15T00:47:51;24.80;;;17.63;;
11988;SDS011;6054;50.966;7.094;2023-02-15T00:50:18;23.27;;;16.27;;
11988;SDS011;6054;50.966;7.094;2023-02-15T00:52:46;22.25;;;16.02;;
11988;SDS011;6054;50.966;7.094;2023-02-15T00:55:12;25.37;;;16.50;;
11988;SDS011;6054;50.966;7.094;2023-02-15T00:57:39;21.23;;;15.17;;
11988;SDS011;6054;50.966;7.094;2023-02-15T01:00:06;24.00;;;16.20;;
11988;SDS011;6054;50.966;7.094;2023-02-15T01:02:34;23.67;;;15.87;;
11988;SDS011;6054;50.966;7.094;2023-02-15T01:05:00;23.37;;;15.83;;
11988;SDS011;6054;50.966;7.094;2023-02-15T01:07:27;24.20;;;16.20;;
11988;SDS011;6054;50.966;7.094;2023-02-15T01:09:55;23.90;;;16.17;;
11988;SDS011;6054;50.966;7.094;2023-02-15T01:12:22;24.40;;;16.80;;
11988;SDS011;6054;50.966;7.094;2023-02-15T01:14:49;26.00;;;16.95;;
11988;SDS011;6054;50.966;7.094;2023-02-15T01:17:15;23.40;;;15.37;;
11988;SDS011;6054;50.966;7.094;2023-02-15T01:19:43;21.23;;;15.43;;
11988;SDS011;6054;50.966;7.094;2023-02-15T01:22:09;23.67;;;16.38;;
11988;SDS011;6054;50.966;7.094;2023-02-15T01:24:36;21.67;;;15.27;;
11988;SDS011;6054;50.966;7.094;2023-02-15T01:27:04;25.97;;;17.17;;
11988;SDS011;6054;50.966;7.094;2023-02-15T01:29:31;23.40;;;16.00;;
11988;SDS011;6054;50.966;7.094;2023-02-15T01:31:58;23.30;;;15.68;;
11988;SDS011;6054;50.966;7.094;2023-02-15T01:34:25;24.80;;;16.40;;
11988;SDS011;6054;50.966;7.094;2023-02-15T01:36:51;20.20;;;14.67;;
11988;SDS011;6054;50.966;7.094;2023-02-15T01:39:18;22.70;;;15.13;;
11988;SDS011;6054;50.966;7.094;2023-02-15T01:41:45;20.20;;;14.30;;
11988;SDS011;6054;50.966;7.094;2023-02-15T01:47:16;21.80;;;14.27;;
11988;SDS011;6054;50.966;7.094;2023-02-15T01:49:47;24.03;;;14.27;;
11988;SDS011;6054;50.966;7.094;2023-02-15T01:52:22;20.27;;;13.88;;
11988;SDS011;6054;50.966;7.094;2023-02-15T01:54:49;20.30;;;14.23;;
11988;SDS011;6054;50.966;7.094;2023-02-15T01:57:18;21.67;;;14.20;;
11988;SDS011;6054;50.966;7.094;2023-02-15T01:59:51;20.93;;;14.37;;
11988;SDS011;6054;50.966;7.094;2023-02-15T02:02:21;19.47;;;14.00;;
11988;SDS011;6054;50.966;7.094;2023-02-15T02:04:50;21.97;;;14.27;;
11988;SDS011;6054;50.966;7.094;2023-02-15T02:07:18;22.57;;;14.43;;
11988;SDS011;6054;50.966;7.094;2023-02-15T02:09:47;21.83;;;14.93;;
11988;SDS011;6054;50.966;7.094;2023-02-15T02:12:14;18.63;;;13.40;;
11988;SDS011;6054;50.966;7.094;2023-02-15T02:14:42;19.93;;;14.00;;
11988;SDS011;6054;50.966;7.094;2023-02-15T02:17:14;21.90;;;14.67;;
11988;SDS011;6054;50.966;7.094;2023-02-15T02:23:11;20.03;;;14.13;;
11988;SDS011;6054;50.966;7.094;2023-02-15T02:32:13;22.10;;;14.43;;
11988;SDS011;6054;50.966;7.094;2023-02-15T02:35:10;18.00;;;12.80;;
11988;SDS011;6054;50.966;7.094;2023-02-15T02:37:45;20.93;;;14.20;;
11988;SDS011;6054;50.966;7.094;2023-02-15T02:40:19;22.70;;;13.93;;
11988;SDS011;6054;50.966;7.094;2023-02-15T02:42:53;21.77;;;14.17;;
11988;SDS011;6054;50.966;7.094;2023-02-15T02:45:26;21.50;;;14.00;;
11988;SDS011;6054;50.966;7.094;2023-02-15T02:47:59;19.73;;;13.87;;
11988;SDS011;6054;50.966;7.094;2023-02-15T02:50:30;21.70;;;13.47;;
11988;SDS011;6054;50.966;7.094;2023-02-15T02:52:57;20.27;;;13.40;;
11988;SDS011;6054;50.966;7.094;2023-02-15T02:55:25;20.70;;;14.03;;
11988;SDS011;6054;50.966;7.094;2023-02-15T02:57:57;19.60;;;13.00;;
11988;SDS011;6054;50.966;7.094;2023-02-15T03:00:27;19.93;;;14.33;;
11988;SDS011;6054;50.966;7.094;2023-02-15T03:03:00;22.47;;;13.70;;
11988;SDS011;6054;50.966;7.094;2023-02-15T03:05:31;22.00;;;13.57;;
11988;SDS011;6054;50.966;7.094;2023-02-15T03:08:00;19.70;;;13.70;;
11988;SDS011;6054;50.966;7.094;2023-02-15T03:10:31;20.83;;;13.50;;
11988;SDS011;6054;50.966;7.094;2023-02-15T03:12:59;21.13;;;14.07;;
11988;SDS011;6054;50.966;7.094;2023-02-15T03:15:27;21.83;;;13.90;;
11988;SDS011;6054;50.966;7.094;2023-02-15T03:18:28;20.63;;;13.73;;
11988;SDS011;6054;50.966;7.094;2023-02-15T03:20:57;20.27;;;13.87;;
11988;SDS011;6054;50.966;7.094;2023-02-15T03:23:27;21.07;;;13.60;;
11988;SDS011;6054;50.966;7.094;2023-02-15T03:25:56;20.60;;;13.43;;
11988;SDS011;6054;50.966;7.094;2023-02-15T03:28:25;18.97;;;13.10;;
11988;SDS011;6054;50.966;7.094;2023-02-15T03:30:58;21.83;;;13.53;;
11988;SDS011;6054;50.966;7.094;2023-02-15T03:33:29;21.43;;;14.27;;
11988;SDS011;6054;50.966;7.094;2023-02-15T03:35:57;22.23;;;14.07;;
11988;SDS011;6054;50.966;7.094;2023-02-15T03:38:29;23.40;;;14.47;;
11988;SDS011;6054;50.966;7.094;2023-02-15T03:41:00;22.02;;;13.68;;
11988;SDS011;6054;50.966;7.094;2023-02-15T03:43:37;22.17;;;14.18;;
11988;SDS011;6054;50.966;7.094;2023-02-15T03:46:11;23.77;;;15.03;;
11988;SDS011;6054;50.966;7.094;2023-02-15T03:48:44;22.30;;;14.07;;
11988;SDS011;6054;50.966;7.094;2023-02-15T03:51:17;23.40;;;13.80;;
11988;SDS011;6054;50.966;7.094;2023-02-15T03:54:01;23.50;;;13.80;;
11988;SDS011;6054;50.966;7.094;2023-02-15T03:56:31;22.87;;;15.00;;
11988;SDS011;6054;50.966;7.094;2023-02-15T03:58:59;21.53;;;14.30;;
11988;SDS011;6054;50.966;7.094;2023-02-15T04:01:45;20.90;;;13.83;;
11988;SDS011;6054;50.966;7.094;2023-02-15T04:04:34;23.73;;;14.17;;
11988;SDS011;6054;50.966;7.094;2023-02-15T04:07:02;23.87;;;14.20;;
11988;SDS011;6054;50.966;7.094;2023-02-15T04:09:30;24.50;;;14.97;;
11988;SDS011;6054;50.966;7.094;2023-02-15T04:12:14;20.27;;;13.40;;
11988;SDS011;6054;50.966;7.094;2023-02-15T04:14:41;22.33;;;12.97;;
11988;SDS011;6054;50.966;7.094;2023-02-15T04:17:25;19.30;;;12.57;;
11988;SDS011;6054;50.966;7.094;2023-02-15T04:19:54;21.87;;;14.30;;
11988;SDS011;6054;50.966;7.094;2023-02-15T04:22:38;21.80;;;14.17;;
11988;SDS011;6054;50.966;7.094;2023-02-15T04:25:22;22.70;;;14.17;;
11988;SDS011;6054;50.966;7.094;2023-02-15T04:27:50;21.00;;;13.57;;
11988;SDS011;6054;50.966;7.094;2023-02-15T04:30:18;22.73;;;14.27;;
11988;SDS011;6054;50.966;7.094;2023-02-15T04:32:47;18.93;;;13.00;;
11988;SDS011;6054;50.966;7.094;2023-02-15T04:35:15;20.83;;;13.40;;
11988;SDS011;6054;50.966;7.094;2023-02-15T04:37:43;21.30;;;14.37;;
11988;SDS011;6054;50.966;7.094;2023-02-15T04:40:10;21.57;;;14.23;;
11988;SDS011;6054;50.966;7.094;2023-02-15T04:42:39;21.10;;;13.80;;
11988;SDS011;6054;50.966;7.094;2023-02-15T04:45:06;21.80;;;13.97;;
11988;SDS011;6054;50.966;7.094;2023-02-15T04:47:33;20.10;;;12.83;;
11988;SDS011;6054;50.966;7.094;2023-02-15T04:50:00;19.67;;;12.80;;
11988;SDS011;6054;50.966;7.094;2023-02-15T04:52:28;21.83;;;13.57;;
11988;SDS011;6054;50.966;7.094;2023-02-15T04:54:55;21.63;;;13.27;;
11988;SDS011;6054;50.966;7.094;2023-02-15T04:57:22;21.00;;;13.00;;
11988;SDS011;6054;50.966;7.094;2023-02-15T04:59:48;21.40;;;13.17;;
11988;SDS011;6054;50.966;7.094;2023-02-15T05:02:15;20.67;;;13.47;;
11988;SDS011;6054;50.966;7.094;2023-02-15T05:04:42;20.03;;;13.00;;
11988;SDS011;6054;50.966;7.094;2023-02-15T05:07:08;24.43;;;13.80;;
11988;SDS011;6054;50.966;7.094;2023-02-15T05:09:36;20.20;;;13.53;;
11988;SDS011;6054;50.966;7.094;2023-02-15T05:12:03;23.77;;;13.53;;
11988;SDS011;6054;50.966;7.094;2023-02-15T05:14:31;19.10;;;12.80;;
11988;SDS011;6054;50.966;7.094;2023-02-15T05:16:57;18.30;;;12.37;;
11988;SDS011;6054;50.966;7.094;2023-02-15T05:19:26;19.77;;;12.90;;
11988;SDS011;6054;50.966;7.094;2023-02-15T05:21:53;20.80;;;12.90;;
11988;SDS011;6054;50.966;7.094;2023-02-15T05:24:19;21.20;;;13.10;;
11988;SDS011;6054;50.966;7.094;2023-02-15T05:27:05;22.13;;;13.93;;
11988;SDS011;6054;50.966;7.094;2023-02-15T05:29:49;20.23;;;13.30;;
11988;SDS011;6054;50.966;7.094;2023-02-15T05:32:16;24.53;;;15.07;;
11988;SDS011;6054;50.966;7.094;2023-02-15T05:34:43;20.47;;;12.90;;
11988;SDS011;6054;50.966;7.094;2023-02-15T05:37:09;23.00;;;14.10;;
11988;SDS011;6054;50.966;7.094;2023-02-15T05:39:36;21.40;;;13.30;;
11988;SDS011;6054;50.966;7.094;2023-02-15T05:42:03;19.57;;;12.63;;
11988;SDS011;6054;50.966;7.094;2023-02-15T05:44:31;21.03;;;12.93;;
11988;SDS011;6054;50.966;7.094;2023-02-15T05:46:58;23.40;;;13.20;;
11988;SDS011;6054;50.966;7.094;2023-02-15T05:49:25;21.87;;;13.57;;
11988;SDS011;6054;50.966;7.094;2023-02-15T05:51:51;20.30;;;13.03;;
11988;SDS011;6054;50.966;7.094;2023-02-15T05:54:18;21.43;;;13.53;;
11988;SDS011;6054;50.966;7.094;2023-02-15T05:56:45;17.73;;;12.50;;
11988;SDS011;6054;50.966;7.094;2023-02-15T05:59:11;19.90;;;12.73;;
11988;SDS011;6054;50.966;7.094;2023-02-15T06:01:40;18.93;;;13.07;;
11988;SDS011;6054;50.966;7.094;2023-02-15T06:04:06;20.37;;;12.57;;
11988;SDS011;6054;50.966;7.094;2023-02-15T06:06:33;19.37;;;12.57;;
11988;SDS011;6054;50.966;7.094;2023-02-15T06:09:00;23.27;;;13.93;;
11988;SDS011;6054;50.966;7.094;2023-02-15T06:11:27;20.70;;;13.00;;
11988;SDS011;6054;50.966;7.094;2023-02-15T06:13:54;18.77;;;11.83;;
11988;SDS011;6054;50.966;7.094;2023-02-15T06:16:20;20.23;;;12.80;;
11988;SDS011;6054;50.966;7.094;2023-02-15T06:18:48;19.97;;;13.13;;
11988;SDS011;6054;50.966;7.094;2023-02-15T06:21:15;20.50;;;12.77;;
11988;SDS011;6054;50.966;7.094;2023-02-15T06:23:42;23.07;;;12.87;;
11988;SDS011;6054;50.966;7.094;2023-02-15T06:26:09;21.20;;;13.07;;
11988;SDS011;6054;50.966;7.094;2023-02-15T06:28:35;20.27;;;13.50;;
11988;SDS011;6054;50.966;7.094;2023-02-15T06:31:03;20.17;;;13.20;;
11988;SDS011;6054;50.966;7.094;2023-02-15T06:33:30;21.30;;;13.33;;
11988;SDS011;6054;50.966;7.094;2023-02-15T06:36:00;19.43;;;13.00;;
11988;SDS011;6054;50.966;7.094;2023-02-15T06:38:27;21.70;;;13.03;;
11988;SDS011;6054;50.966;7.094;2023-02-15T06:40:53;20.13;;;12.80;;
11988;SDS011;6054;50.966;7.094;2023-02-15T06:43:20;20.30;;;12.53;;
11988;SDS011;6054;50.966;7.094;2023-02-15T06:45:47;20.97;;;12.70;;
11988;SDS011;6054;50.966;7.094;2023-02-15T06:48:15;18.73;;;12.10;;
11988;SDS011;6054;50.966;7.094;2023-02-15T06:50:41;19.30;;;12.20;;
11988;SDS011;6054;50.966;7.094;2023-02-15T06:53:09;21.17;;;12.03;;
11988;SDS011;6054;50.966;7.094;2023-02-15T06:55:36;19.37;;;11.90;;
11988;SDS011;6054;50.966;7.094;2023-02-15T06:58:03;20.20;;;12.57;;
11988;SDS011;6054;50.966;7.094;2023-02-15T07:00:29;20.77;;;12.00;;
11988;SDS011;6054;50.966;7.094;2023-02-15T07:02:57;19.73;;;12.73;;
11988;SDS011;6054;50.966;7.094;2023-02-15T07:05:25;20.50;;;13.20;;
11988;SDS011;6054;50.966;7.094;2023-02-15T07:07:55;20.50;;;12.57;;
11988;SDS011;6054;50.966;7.094;2023-02-15T07:10:23;17.93;;;11.50;;
11988;SDS011;6054;50.966;7.094;2023-02-15T07:12:50;21.03;;;12.37;;
11988;SDS011;6054;50.966;7.094;2023-02-15T07:15:16;20.47;;;12.87;;
11988;SDS011;6054;50.966;7.094;2023-02-15T07:17:45;19.93;;;12.80;;
11988;SDS011;6054;50.966;7.094;2023-02-15T07:20:14;20.17;;;12.30;;
11988;SDS011;6054;50.966;7.094;2023-02-15T07:22:43;19.63;;;12.83;;
11988;SDS011;6054;50.966;7.094;2023-02-15T07:25:11;19.00;;;12.23;;
11988;SDS011;6054;50.966;7.094;2023-02-15T07:27:39;19.33;;;12.33;;
11988;SDS011;6054;50.966;7.094;2023-02-15T07:30:08;18.77;;;12.03;;
11988;SDS011;6054;50.966;7.094;2023-02-15T07:32:36;21.03;;;12.40;;
11988;SDS011;6054;50.966;7.094;2023-02-15T07:35:24;18.53;;;11.27;;
11988;SDS011;6054;50.966;7.094;2023-02-15T07:37:51;19.20;;;11.90;;
11988;SDS011;6054;50.966;7.094;2023-02-15T07:40:18;20.20;;;11.47;;
11988;SDS011;6054;50.966;7.094;2023-02-15T07:42:48;17.20;;;11.67;;
11988;SDS011;6054;50.966;7.094;2023-02-15T07:45:17;17.70;;;11.20;;
11988;SDS011;6054;50.966;7.094;2023-02-15T07:47:44;18.60;;;11.80;;
11988;SDS011;6054;50.966;7.094;2023-02-15T07:50:10;18.10;;;11.30;;
11988;SDS011;6054;50.966;7.094;2023-02-15T07:52:37;18.23;;;12.60;;
11988;SDS011;6054;50.966;7.094;2023-02-15T07:55:04;16.87;;;11.40;;
11988;SDS011;6054;50.966;7.094;2023-02-15T07:57:33;17.53;;;11.50;;
11988;SDS011;6054;50.966;7.094;2023-02-15T08:00:02;15.13;;;9.20;;
11988;SDS011;6054;50.966;7.094;2023-02-15T08:02:29;18.37;;;11.87;;
11988;SDS011;6054;50.966;7.094;2023-02-15T08:04:55;15.77;;;11.00;;
11988;SDS011;6054;50.966;7.094;2023-02-15T08:07:22;14.40;;;10.23;;
11988;SDS011;6054;50.966;7.094;2023-02-15T08:09:49;16.00;;;10.87;;
11988;SDS011;6054;50.966;7.094;2023-02-15T08:12:15;12.93;;;8.73;;
11988;SDS011;6054;50.966;7.094;2023-02-15T08:14:42;15.90;;;11.07;;
11988;SDS011;6054;50.966;7.094;2023-02-15T08:17:10;16.03;;;10.93;;
11988;SDS011;6054;50.966;7.094;2023-02-15T08:19:37;16.83;;;11.07;;
11988;SDS011;6054;50.966;7.094;2023-02-15T08:22:05;15.23;;;10.60;;
11988;SDS011;6054;50.966;7.094;2023-02-15T08:24:33;13.67;;;9.63;;
11988;SDS011;6054;50.966;7.094;2023-02-15T08:27:02;15.97;;;10.13;;
11988;SDS011;6054;50.966;7.094;2023-02-15T08:29:30;14.83;;;10.70;;
11988;SDS011;6054;50.966;7.094;2023-02-15T08:31:58;15.33;;;10.60;;
11988;SDS011;6054;50.966;7.094;2023-02-15T08:34:29;16.17;;;10.33;;
11988;SDS011;6054;50.966;7.094;2023-02-15T08:36:57;13.17;;;9.10;;
11988;SDS011;6054;50.966;7.094;2023-02-15T08:39:24;14.77;;;10.20;;
11988;SDS011;6054;50.966;7.094;2023-02-15T08:41:50;16.57;;;10.10;;
11988;SDS011;6054;50.966;7.094;2023-02-15T08:44:18;13.87;;;10.07;;
11988;SDS011;6054;50.966;7.094;2023-02-15T08:49:13;13.07;;;9.87;;
11988;SDS011;6054;50.966;7.094;2023-02-15T08:51:44;16.33;;;10.63;;
11988;SDS011;6054;50.966;7.094;2023-02-15T08:54:12;13.73;;;9.30;;
11988;SDS011;6054;50.966;7.094;2023-02-15T08:56:41;15.43;;;10.13;;
11988;SDS011;6054;50.966;7.094;2023-02-15T08:59:11;14.90;;;10.27;;
11988;SDS011;6054;50.966;7.094;2023-02-15T09:01:39;14.93;;;10.57;;
11988;SDS011;6054;50.966;7.094;2023-02-15T09:04:07;12.57;;;9.23;;
11988;SDS011;6054;50.966;7.094;2023-02-15T09:06:34;14.53;;;9.23;;
11988;SDS011;6054;50.966;7.094;2023-02-15T09:09:03;14.27;;;9.90;;
11988;SDS011;6054;50.966;7.094;2023-02-15T09:11:32;11.00;;;7.97;;
11988;SDS011;6054;50.966;7.094;2023-02-15T09:14:01;14.40;;;9.50;;
11988;SDS011;6054;50.966;7.094;2023-02-15T09:16:31;13.00;;;9.23;;
11988;SDS011;6054;50.966;7.094;2023-02-15T09:18:59;14.07;;;9.27;;
11988;SDS011;6054;50.966;7.094;2023-02-15T09:21:27;11.90;;;8.87;;
11988;SDS011;6054;50.966;7.094;2023-02-15T09:23:55;15.43;;;10.52;;
11988;SDS011;6054;50.966;7.094;2023-02-15T09:26:26;13.40;;;9.70;;
11988;SDS011;6054;50.966;7.094;2023-02-15T09:28:54;13.03;;;8.87;;
11988;SDS011;6054;50.966;7.094;2023-02-15T09:31:23;11.82;;;9.02;;
11988;SDS011;6054;50.966;7.094;2023-02-15T09:33:51;12.27;;;9.57;;
11988;SDS011;6054;50.966;7.094;2023-02-15T09:36:19;13.33;;;9.30;;
11988;SDS011;6054;50.966;7.094;2023-02-15T09:38:48;12.45;;;9.15;;
11988;SDS011;6054;50.966;7.094;2023-02-15T09:41:38;14.57;;;9.75;;
11988;SDS011;6054;50.966;7.094;2023-02-15T09:44:28;13.57;;;9.63;;
11988;SDS011;6054;50.966;7.094;2023-02-15T09:47:10;13.32;;;9.35;;
11988;SDS011;6054;50.966;7.094;2023-02-15T09:49:59;13.63;;;9.83;;
11988;SDS011;6054;50.966;7.094;2023-02-15T09:52:39;10.80;;;8.57;;
11988;SDS011;6054;50.966;7.094;2023-02-15T09:55:22;11.00;;;8.75;;
11988;SDS011;6054;50.966;7.094;2023-02-15T09:58:05;13.73;;;9.52;;
11988;SDS011;6054;50.966;7.094;2023-02-15T10:00:40;11.98;;;9.68;;
11988;SDS011;6054;50.966;7.094;2023-02-15T10:03:18;12.35;;;9.55;;
11988;SDS011;6054;50.966;7.094;2023-02-15T10:06:10;12.30;;;9.50;;
11988;SDS011;6054;50.966;7.094;2023-02-15T10:09:02;13.27;;;8.90;;
11988;SDS011;6054;50.966;7.094;2023-02-15T10:11:39;10.52;;;8.52;;
11988;SDS011;6054;50.966;7.094;2023-02-15T10:14:24;11.68;;;8.63;;
11988;SDS011;6054;50.966;7.094;2023-02-15T10:17:10;12.07;;;8.32;;
11988;SDS011;6054;50.966;7.094;2023-02-15T10:19:48;11.30;;;8.50;;
11988;SDS011;6054;50.966;7.094;2023-02-15T10:22:25;11.98;;;9.07;;
11988;SDS011;6054;50.966;7.094;2023-02-15T10:25:07;10.93;;;8.80;;
11988;SDS011;6054;50.966;7.094;2023-02-15T10:27:48;12.40;;;8.52;;
11988;SDS011;6054;50.966;7.094;2023-02-15T10:30:17;12.18;;;9.43;;
11988;SDS011;6054;50.966;7.094;2023-02-15T10:32:54;12.68;;;8.50;;
11988;SDS011;6054;50.966;7.094;2023-02-15T10:35:26;11.05;;;8.30;;
11988;SDS011;6054;50.966;7.094;2023-02-15T10:38:03;11.07;;;8.80;;
11988;SDS011;6054;50.966;7.094;2023-02-15T10:40:41;12.63;;;9.55;;
11988;SDS011;6054;50.966;7.094;2023-02-15T10:43:18;11.35;;;8.38;;
11988;SDS011;6054;50.966;7.094;2023-02-15T10:46:01;12.52;;;9.32;;
11988;SDS011;6054;50.966;7.094;2023-02-15T10:48:39;11.65;;;8.68;;
11988;SDS011;6054;50.966;7.094;2023-02-15T10:51:29;10.48;;;8.77;;
11988;SDS011;6054;50.966;7.094;2023-02-15T10:54:09;10.98;;;9.25;;
11988;SDS011;6054;50.966;7.094;2023-02-15T10:56:46;13.38;;;8.43;;
11988;SDS011;6054;50.966;7.094;2023-02-15T10:59:25;13.95;;;9.10;;
11988;SDS011;6054;50.966;7.094;2023-02-15T11:02:11;11.95;;;8.10;;
11988;SDS011;6054;50.966;7.094;2023-02-15T11:04:45;12.07;;;8.70;;
11988;SDS011;6054;50.966;7.094;2023-02-15T11:07:16;12.63;;;9.27;;
11988;SDS011;6054;50.966;7.094;2023-02-15T11:09:48;10.02;;;7.85;;
11988;SDS011;6054;50.966;7.094;2023-02-15T11:12:19;12.68;;;8.95;;
11988;SDS011;6054;50.966;7.094;2023-02-15T11:14:49;11.85;;;8.77;;
11988;SDS011;6054;50.966;7.094;2023-02-15T11:17:23;11.45;;;8.55;;
11988;SDS011;6054;50.966;7.094;2023-02-15T11:19:56;11.60;;;8.60;;
11988;SDS011;6054;50.966;7.094;2023-02-15T11:22:28;12.35;;;8.95;;
11988;SDS011;6054;50.966;7.094;2023-02-15T11:24:56;10.10;;;8.07;;
11988;SDS011;6054;50.966;7.094;2023-02-15T11:27:25;10.32;;;8.55;;
11988;SDS011;6054;50.966;7.094;2023-02-15T11:29:58;10.55;;;8.50;;
11988;SDS011;6054;50.966;7.094;2023-02-15T11:32:28;11.98;;;9.43;;
11988;SDS011;6054;50.966;7.094;2023-02-15T11:34:59;11.23;;;8.77;;
11988;SDS011;6054;50.966;7.094;2023-02-15T11:37:32;11.95;;;9.10;;
11988;SDS011;6054;50.966;7.094;2023-02-15T11:40:03;11.15;;;8.50;;
11988;SDS011;6054;50.966;7.094;2023-02-15T11:42:43;10.60;;;8.70;;
11988;SDS011;6054;50.966;7.094;2023-02-15T11:45:18;9.70;;;8.48;;
11988;SDS011;6054;50.966;7.094;2023-02-15T11:47:50;10.70;;;9.00;;
11988;SDS011;6054;50.966;7.094;2023-02-15T11:50:19;10.50;;;8.65;;
11988;SDS011;6054;50.966;7.094;2023-02-15T11:52:54;12.77;;;8.98;;
11988;SDS011;6054;50.966;7.094;2023-02-15T11:55:25;10.80;;;8.68;;
11988;SDS011;6054;50.966;7.094;2023-02-15T11:58:01;10.57;;;8.60;;
11988;SDS011;6054;50.966;7.094;2023-02-15T12:00:35;13.43;;;8.93;;
11988;SDS011;6054;50.966;7.094;2023-02-15T12:03:14;10.80;;;8.75;;
11988;SDS011;6054;50.966;7.094;2023-02-15T12:05:45;10.00;;;8.30;;
11988;SDS011;6054;50.966;7.094;2023-02-15T12:08:16;10.70;;;8.57;;
11988;SDS011;6054;50.966;7.094;2023-02-15T12:10:57;11.25;;;8.57;;
11988;SDS011;6054;50.966;7.094;2023-02-15T12:13:28;10.88;;;8.80;;
11988;SDS011;6054;50.966;7.094;2023-02-15T12:15:57;10.88;;;8.35;;
11988;SDS011;6054;50.966;7.094;2023-02-15T12:18:33;13.23;;;8.40;;
11988;SDS011;6054;50.966;7.094;2023-02-15T12:21:03;11.50;;;8.77;;
11988;SDS011;6054;50.966;7.094;2023-02-15T12:23:33;10.85;;;9.00;;
11988;SDS011;6054;50.966;7.094;2023-02-15T12:26:06;10.50;;;8.88;;
11988;SDS011;6054;50.966;7.094;2023-02-15T12:28:33;10.82;;;8.18;;
11988;SDS011;6054;50.966;7.094;2023-02-15T12:31:03;11.88;;;9.13;;
11988;SDS011;6054;50.966;7.094;2023-02-15T12:33:38;10.38;;;8.38;;
11988;SDS011;6054;50.966;7.094;2023-02-15T12:36:11;12.10;;;9.30;;
11988;SDS011;6054;50.966;7.094;2023-02-15T12:38:41;15.43;;;9.55;;
11988;SDS011;6054;50.966;7.094;2023-02-15T12:41:21;11.50;;;8.77;;
11988;SDS011;6054;50.966;7.094;2023-02-15T12:44:02;12.20;;;8.82;;
11988;SDS011;6054;50.966;7.094;2023-02-15T12:46:31;11.45;;;8.98;;
11988;SDS011;6054;50.966;7.094;2023-02-15T12:49:06;12.95;;;9.65;;
11988;SDS011;6054;50.966;7.094;2023-02-15T12:51:46;11.63;;;8.88;;
11988;SDS011;6054;50.966;7.094;2023-02-15T12:54:16;10.23;;;8.57;;
11988;SDS011;6054;50.966;7.094;2023-02-15T12:56:50;13.10;;;9.38;;
11988;SDS011;6054;50.966;7.094;2023-02-15T12:59:17;11.60;;;9.27;;
11988;SDS011;6054;50.966;7.094;2023-02-15T13:01:45;12.43;;;9.18;;
11988;SDS011;6054;50.966;7.094;2023-02-15T13:04:16;11.38;;;8.80;;
11988;SDS011;6054;50.966;7.094;2023-02-15T13:06:49;13.52;;;9.50;;
11988;SDS011;6054;50.966;7.094;2023-02-15T13:09:19;12.63;;;9.32;;
11988;SDS011;6054;50.966;7.094;2023-02-15T13:11:49;11.65;;;9.27;;
11988;SDS011;6054;50.966;7.094;2023-02-15T13:14:17;10.65;;;9.32;;
11988;SDS011;6054;50.966;7.094;2023-02-15T13:16:47;13.10;;;9.30;;
11988;SDS011;6054;50.966;7.094;2023-02-15T13:19:18;11.32;;;9.13;;
11988;SDS011;6054;50.966;7.094;2023-02-15T13:21:49;11.43;;;9.23;;
11988;SDS011;6054;50.966;7.094;2023-02-15T13:24:20;11.90;;;9.20;;
11988;SDS011;6054;50.966;7.094;2023-02-15T13:26:49;11.75;;;8.65;;
11988;SDS011;6054;50.966;7.094;2023-02-15T13:29:20;10.88;;;9.00;;
11988;SDS011;6054;50.966;7.094;2023-02-15T13:31:52;11.52;;;9.45;;
11988;SDS011;6054;50.966;7.094;2023-02-15T13:34:24;12.05;;;9.55;;
11988;SDS011;6054;50.966;7.094;2023-02-15T13:36:57;10.50;;;8.85;;
11988;SDS011;6054;50.966;7.094;2023-02-15T13:39:34;13.10;;;9.75;;
11988;SDS011;6054;50.966;7.094;2023-02-15T13:42:05;11.23;;;9.05;;
11988;SDS011;6054;50.966;7.094;2023-02-15T13:44:52;11.88;;;8.85;;
11988;SDS011;6054;50.966;7.094;2023-02-15T13:47:27;11.43;;;9.82;;
11988;SDS011;6054;50.966;7.094;2023-02-15T13:50:10;11.02;;;9.32;;
11988;SDS011;6054;50.966;7.094;2023-02-15T13:52:51;11.27;;;9.25;;
11988;SDS011;6054;50.966;7.094;2023-02-15T13:55:28;11.38;;;9.65;;
11988;SDS011;6054;50.966;7.094;2023-02-15T13:58:15;10.85;;;9.20;;
11988;SDS011;6054;50.966;7.094;2023-02-15T14:00:56;12.02;;;9.85;;
11988;SDS011;6054;50.966;7.094;2023-02-15T14:03:46;11.15;;;9.95;;
11988;SDS011;6054;50.966;7.094;2023-02-15T14:06:35;11.02;;;9.20;;
11988;SDS011;6054;50.966;7.094;2023-02-15T14:09:20;13.05;;;9.27;;
11988;SDS011;6054;50.966;7.094;2023-02-15T14:11:55;12.52;;;10.38;;
11988;SDS011;6054;50.966;7.094;2023-02-15T14:14:48;11.98;;;9.77;;
11988;SDS011;6054;50.966;7.094;2023-02-15T14:17:28;10.13;;;9.07;;
11988;SDS011;6054;50.966;7.094;2023-02-15T14:20:07;12.00;;;8.82;;
11988;SDS011;6054;50.966;7.094;2023-02-15T14:22:49;10.10;;;9.00;;
11988;SDS011;6054;50.966;7.094;2023-02-15T14:25:25;12.85;;;9.02;;
11988;SDS011;6054;50.966;7.094;2023-02-15T14:27:59;12.02;;;9.70;;
11988;SDS011;6054;50.966;7.094;2023-02-15T14:30:32;11.15;;;9.48;;
11988;SDS011;6054;50.966;7.094;2023-02-15T14:33:04;13.43;;;9.48;;
11988;SDS011;6054;50.966;7.094;2023-02-15T14:35:33;10.93;;;9.20;;
11988;SDS011;6054;50.966;7.094;2023-02-15T14:38:04;14.10;;;9.70;;
11988;SDS011;6054;50.966;7.094;2023-02-15T14:40:42;13.20;;;9.50;;
11988;SDS011;6054;50.966;7.094;2023-02-15T14:43:33;13.65;;;9.90;;
11988;SDS011;6054;50.966;7.094;2023-02-15T14:46:11;12.60;;;9.48;;
11988;SDS011;6054;50.966;7.094;2023-02-15T14:48:46;13.13;;;9.30;;
11988;SDS011;6054;50.966;7.094;2023-02-15T14:57:24;12.52;;;10.30;;
11988;SDS011;6054;50.966;7.094;2023-02-15T14:59:53;13.98;;;10.40;;
11988;SDS011;6054;50.966;7.094;2023-02-15T15:02:23;11.60;;;9.30;;
11988;SDS011;6054;50.966;7.094;2023-02-15T15:04:56;13.43;;;10.10;;
11988;SDS011;6054;50.966;7.094;2023-02-15T15:07:27;13.35;;;9.38;;
11988;SDS011;6054;50.966;7.094;2023-02-15T15:10:03;12.27;;;9.57;;
11988;SDS011;6054;50.966;7.094;2023-02-15T15:12:42;13.65;;;10.43;;
11988;SDS011;6054;50.966;7.094;2023-02-15T15:15:13;12.75;;;9.45;;
11988;SDS011;6054;50.966;7.094;2023-02-15T15:17:59;15.32;;;9.10;;
11988;SDS011;6054;50.966;7.094;2023-02-15T15:20:43;13.45;;;9.65;;
11988;SDS011;6054;50.966;7.094;2023-02-15T15:26:23;10.60;;;9.45;;
11988;SDS011;6054;50.966;7.094;2023-02-15T15:28:56;11.70;;;8.93;;
11988;SDS011;6054;50.966;7.094;2023-02-15T15:31:38;12.18;;;9.18;;